Time;durP1;ratioP1;P1;durP2;ratioP2;P2;SDS_P1;SDS_P2;PMS_P1;PMS_P2;Temp;Humidity;BMP_temperature;BMP_pressure;BME280_temperature;BME280_humidity;BME280_pressure;Samples;Min_cycle;Max_cycle;Signal;HPM_P1;HPM_P2
2021/06/08 00:00:19;;;;;;;;;;;14.20;99.90;;;13.99;98.89;101032.41;5074845;28;19924;-63
2021/06/08 00:02:47;;;;;;;;;;;14.20;99.90;;;14.06;98.72;101029.25;5074657;28;19931;-64
2021/06/08 00:05:14;;;;;;;;;;;14.20;99.90;;;14.08;97.73;101027.03;5073993;28;20069;-63
2021/06/08 00:07:42;;;;;;;;;;;14.10;99.90;;;14.03;97.00;101019.81;5074015;28;19924;-64
2021/06/08 00:10:12;;;;;;;;;;;14.20;99.90;;;13.97;97.34;101017.50;5074640;28;19943;-63
2021/06/08 00:12:39;;;;;;;;;;;14.10;99.90;;;13.79;98.48;101015.75;5074230;28;19924;-63
2021/06/08 00:15:08;;;;;;;;;;;14.10;99.90;;;13.67;99.14;101021.72;5073609;28;19982;-63
2021/06/08 00:17:35;;;;;;;;;;;14.00;99.90;;;13.75;99.46;101015.56;5073013;28;19929;-63
2021/06/08 00:20:04;;;;;;;;;;;14.00;99.90;;;13.86;99.51;101014.19;5074582;28;19928;-63
2021/06/08 00:22:31;;;;;;;;;;;14.10;99.90;;;13.85;98.73;101009.91;5074192;28;19925;-63
2021/06/08 00:24:58;;;;;;;;;;;14.10;99.90;;;13.84;98.10;101007.47;5073730;28;19924;-63
2021/06/08 00:27:27;;;;;;;;;;;;;;;13.75;98.09;101018.28;5073277;28;19924;-63
2021/06/08 00:29:54;;;;;;;;;;;13.90;99.90;;;13.62;99.11;101019.09;5074214;28;19929;-63
2021/06/08 00:32:21;;;;;;;;;;;13.90;99.90;;;13.53;100.00;101016.28;5073985;28;19931;-63
2021/06/08 00:34:48;;;;;;;;;;;13.90;99.90;;;13.52;99.84;101009.28;5073526;28;20347;-63
2021/06/08 00:37:16;;;;;;;;;;;13.80;99.90;;;13.60;100.00;101019.41;5073250;28;19970;-63
2021/06/08 00:39:43;;;;;;;;;;;13.90;99.90;;;13.66;99.92;101006.50;5073926;28;20348;-63
2021/06/08 00:42:10;;;;;;;;;;;13.90;99.90;;;13.69;100.00;101009.44;5074060;28;19924;-63
2021/06/08 00:44:39;;;;;;;;;;;13.90;99.90;;;13.63;99.53;101010.66;5073258;28;19924;-64
2021/06/08 00:47:07;;;;;;;;;;;13.90;99.90;;;13.34;98.34;101003.97;5072930;28;19931;-63
2021/06/08 00:49:34;;;;;;;;;;;13.70;99.90;;;13.08;98.70;101004.47;5073657;28;19928;-63
2021/06/08 00:52:02;;;;;;;;;;;13.50;99.90;;;12.99;99.39;101002.72;5073776;28;19928;-63
2021/06/08 00:54:29;;;;;;;;;;;13.40;99.90;;;12.99;100.00;100997.28;5073203;28;19928;-63
2021/06/08 00:56:58;;;;;;;;;;;13.40;99.90;;;13.12;100.00;100997.34;5072741;28;20267;-63
2021/06/08 00:59:25;;;;;;;;;;;13.50;99.90;;;13.30;100.00;101000.22;5073462;28;19928;-64
2021/06/08 01:01:54;;;;;;;;;;;13.70;99.90;;;13.33;100.00;101003.16;5073747;28;19925;-63
2021/06/08 01:04:21;;;;;;;;;;;13.70;99.90;;;13.28;100.00;100995.13;5073426;28;20294;-63
2021/06/08 01:06:49;;;;;;;;;;;13.70;99.90;;;13.45;100.00;100995.28;5072124;28;19924;-63
2021/06/08 01:09:16;;;;;;;;;;;13.70;99.90;;;13.57;100.00;100989.31;5073348;28;20471;-63
2021/06/08 01:11:43;;;;;;;;;;;13.80;99.90;;;13.68;100.00;100980.63;5073168;28;19935;-63
2021/06/08 01:14:11;;;;;;;;;;;13.90;99.90;;;13.67;100.00;100986.41;5073353;28;19924;-63
2021/06/08 01:16:39;;;;;;;;;;;13.90;99.90;;;13.60;99.89;100994.16;5071980;28;19924;-63
2021/06/08 01:19:07;;;;;;;;;;;13.80;99.90;;;13.63;100.00;100993.53;5072985;28;20378;-63
2021/06/08 01:21:36;;;;;;;;;;;13.80;99.90;;;13.60;100.00;100991.44;5073232;28;19986;-65
2021/06/08 01:24:04;;;;;;;;;;;13.80;99.90;;;13.62;100.00;100987.28;5073096;28;19980;-63
2021/06/08 01:26:32;;;;;;;;;;;13.80;99.90;;;13.50;100.00;100988.94;5071950;28;19925;-64
2021/06/08 01:29:02;;;;;;;;;;;13.80;99.90;;;13.36;100.00;100986.25;5072776;28;19925;-64
2021/06/08 01:31:31;;;;;;;;;;;13.70;99.90;;;13.39;100.00;100988.34;5072667;28;19924;-63
2021/06/08 01:33:59;;;;;;;;;;;13.70;99.90;;;13.42;100.00;100987.75;5072842;28;19981;-63
2021/06/08 01:36:29;;;;;;;;;;;13.70;99.90;;;13.51;100.00;100990.53;5071740;28;20385;-63
2021/06/08 01:38:58;;;;;;;;;;;13.80;99.90;;;13.57;100.00;100989.31;5073152;28;19925;-64
2021/06/08 01:41:26;;;;;;;;;;;13.80;99.90;;;13.63;100.00;100991.63;5073022;28;19932;-63
2021/06/08 01:43:54;;;;;;;;;;;13.90;99.90;;;13.66;100.00;100982.06;5072792;28;19925;-63
2021/06/08 01:46:22;;;;;;;;;;;13.90;99.90;;;13.65;100.00;100991.31;5071745;28;19986;-63
2021/06/08 01:48:50;;;;;;;;;;;13.90;99.90;;;13.60;100.00;100994.97;5072497;28;19925;-63
2021/06/08 01:51:24;;;;;;;;;;;13.90;99.90;;;13.49;100.00;100987.34;5072762;28;19925;-63
2021/06/08 01:54:00;;;;;;;;;;;13.80;99.90;;;13.40;100.00;100984.53;5072675;28;19925;-64
2021/06/08 01:56:29;;;;;;;;;;;13.80;99.90;;;13.45;100.00;100976.28;5071599;28;19924;-62
2021/06/08 01:59:10;;;;;;;;;;;13.80;99.90;;;13.57;100.00;100987.41;5072495;28;19925;-64
2021/06/08 02:01:48;;;;;;;;;;;13.80;99.90;;;13.65;100.00;100981.25;5072683;28;19925;-63
2021/06/08 02:04:23;;;;;;;;;;;13.90;99.90;;;13.66;100.00;100973.91;5072687;28;19924;-64
2021/06/08 02:07:04;;;;;;;;;;;14.00;99.90;;;13.63;100.00;100967.19;5071246;28;20408;-63
2021/06/08 02:09:39;;;;;;;;;;;14.00;99.90;;;13.72;100.00;100966.44;5072599;28;19932;-63
2021/06/08 02:12:14;;;;;;;;;;;14.10;99.90;;;13.77;100.00;100960.91;5072323;28;19924;-65
2021/06/08 02:14:45;;;;;;;;;;;14.20;99.90;;;13.83;100.00;100965.88;5072088;28;19929;-63
2021/06/08 02:17:17;;;;;;;;;;;14.20;99.90;;;13.98;100.00;100957.38;5071943;28;20293;-63
2021/06/08 02:19:46;;;;;;;;;;;14.40;99.90;;;13.99;100.00;100963.63;5072494;28;19986;-63
2021/06/08 02:22:14;;;;;;;;;;;14.40;99.90;;;13.93;100.00;100954.78;5072503;28;19950;-63
2021/06/08 02:24:45;;;;;;;;;;;14.30;99.90;;;13.98;100.00;100956.59;5071723;28;19928;-63
2021/06/08 02:27:14;;;;;;;;;;;14.30;99.90;;;14.05;100.00;100949.59;5071687;28;19967;-64
2021/06/08 02:29:45;;;;;;;;;;;14.40;99.90;;;14.05;100.00;100952.31;5072527;28;20018;-63
2021/06/08 02:32:13;;;;;;;;;;;14.40;99.90;;;13.99;100.00;100941.88;5072464;28;20373;-63
2021/06/08 02:34:40;;;;;;;;;;;14.40;99.90;;;13.97;100.00;100936.75;5071889;28;19928;-63
2021/06/08 02:37:10;;;;;;;;;;;14.30;99.90;;;14.02;100.00;100939.34;5071398;28;19928;-63
2021/06/08 02:39:40;;;;;;;;;;;14.40;99.90;;;14.10;100.00;100937.81;5072282;28;20329;-63
2021/06/08 02:42:10;;;;;;;;;;;14.50;99.90;;;14.32;100.00;100934.25;5075032;28;19924;-65
2021/06/08 02:44:38;;;;;;;;;;;14.60;99.90;;;14.49;100.00;100928.94;5075812;28;19932;-63
2021/06/08 02:47:06;;;;;;;;;;;14.70;99.90;;;14.55;100.00;100927.69;5075292;28;19928;-63
2021/06/08 02:49:34;;;;;;;;;;;14.80;99.90;;;14.60;100.00;100919.38;5076378;28;19978;-63
2021/06/08 02:52:02;;;;;;;;;;;14.80;99.90;;;14.59;100.00;100913.13;5076055;28;19950;-63
2021/06/08 02:54:29;;;;;;;;;;;14.80;99.90;;;14.59;100.00;100913.13;5075754;28;19932;-64
2021/06/08 02:56:58;;;;;;;;;;;14.80;99.90;;;14.58;100.00;100911.53;5075291;28;19924;-64
2021/06/08 02:59:28;;;;;;;;;;;14.80;99.90;;;14.54;99.04;100913.25;5075888;28;19935;-64
2021/06/08 03:01:58;;;;;;;;;;;14.70;99.90;;;14.50;99.05;100911.50;5075991;28;19982;-63
2021/06/08 03:04:29;;;;;;;;;;;14.70;99.90;;;14.44;99.24;100915.47;5075709;28;19928;-63
2021/06/08 03:06:58;;;;;;;;;;;14.60;99.90;;;14.31;97.13;100916.31;5075196;28;20401;-64
2021/06/08 03:09:33;;;;;;;;;;;14.50;99.90;;;14.18;97.38;100918.00;5075914;28;19928;-64
2021/06/08 03:12:03;;;;;;;;;;;14.40;99.90;;;14.10;97.32;100927.69;5075785;28;20294;-63
2021/06/08 03:14:32;;;;;;;;;;;14.30;99.90;;;14.06;97.37;100915.06;5075424;28;19924;-63
2021/06/08 03:17:01;;;;;;;;;;;14.20;99.90;;;14.04;98.18;100923.50;5074705;28;19928;-63
2021/06/08 03:19:33;;;;;;;;;;;14.20;99.90;;;14.00;97.50;100916.28;5075578;28;19925;-63
2021/06/08 03:22:04;;;;;;;;;;;14.20;99.90;;;13.98;97.69;100919.31;5075857;28;19924;-64
2021/06/08 03:24:34;;;;;;;;;;;14.20;99.90;;;14.01;97.81;100913.25;5075353;28;19982;-63
2021/06/08 03:27:02;;;;;;;;;;;14.20;99.90;;;14.12;99.30;100908.38;5074743;28;19925;-63
2021/06/08 03:29:34;;;;;;;;;;;14.30;99.90;;;14.19;99.20;100904.09;5075447;28;19925;-63
2021/06/08 03:32:02;;;;;;;;;;;14.40;99.90;;;14.28;98.74;100909.59;5075392;28;20393;-63
2021/06/08 03:34:30;;;;;;;;;;;14.50;99.90;;;14.29;97.68;100913.13;5075099;28;19931;-63
2021/06/08 03:36:59;;;;;;;;;;;14.50;99.90;;;14.27;96.75;100909.91;5073962;28;19928;-63
2021/06/08 03:39:27;;;;;;;;;;;14.50;99.90;;;14.31;96.29;100916.31;5074978;28;19924;-63
2021/06/08 03:41:55;;;;;;;;;;;14.60;99.90;;;14.39;94.66;100921.03;5075439;28;19978;-64
2021/06/08 03:44:22;;;;;;;;;;;14.60;99.90;;;14.46;94.21;100918.66;5075043;28;20389;-64
2021/06/08 03:46:52;;;;;;;;;;;14.60;99.90;;;14.48;93.70;100928.13;5073912;28;20282;-64
2021/06/08 03:49:22;;;;;;;;;;;14.70;99.90;;;14.48;93.29;100928.13;5074911;28;19928;-64
2021/06/08 03:51:50;;;;;;;;;;;14.70;99.90;;;14.50;93.12;100925.88;5075043;28;19928;-64
2021/06/08 03:54:18;;;;;;;;;;;14.70;99.90;;;14.48;92.76;100933.56;5074390;28;20003;-63
2021/06/08 03:56:47;;;;;;;;;;;14.70;99.90;;;14.46;92.34;100927.66;5073763;28;19928;-63
2021/06/08 03:59:15;;;;;;;;;;;14.60;99.90;;;14.45;92.00;100930.66;5074672;28;19925;-63
2021/06/08 04:01:43;;;;;;;;;;;14.60;99.90;;;14.42;91.67;100931.28;5074811;28;19924;-63
2021/06/08 04:04:12;;;;;;;;;;;14.60;99.90;;;14.38;91.00;100927.59;5074908;28;19932;-63
2021/06/08 04:06:40;;;;;;;;;;;14.60;99.90;;;14.38;91.18;100933.03;5073177;28;19928;-63
2021/06/08 04:09:08;;;;;;;;;;;14.50;99.90;;;14.39;91.22;100935.44;5074329;28;19924;-63
2021/06/08 04:11:35;;;;;;;;;;;14.60;99.90;;;14.33;90.97;100935.88;5074597;28;19928;-63
2021/06/08 04:14:03;;;;;;;;;;;14.60;99.90;;;14.30;90.69;100942.72;5074624;28;19928;-64
2021/06/08 04:16:30;;;;;;;;;;;14.50;99.90;;;14.27;90.68;100940.63;5073339;28;19928;-63
2021/06/08 04:18:58;;;;;;;;;;;14.50;99.90;;;14.28;89.96;100944.16;5074043;28;20435;-63
2021/06/08 04:21:27;;;;;;;;;;;14.50;99.90;;;14.23;89.34;100950.50;5074525;28;19982;-63
2021/06/08 04:23:58;;;;;;;;;;;14.40;99.90;;;14.13;88.09;100957.00;5074485;28;19960;-63
2021/06/08 04:26:26;;;;;;;;;;;14.30;99.90;;;14.06;87.93;100967.53;5073401;28;20026;-65
2021/06/08 04:28:55;;;;;;;;;;;14.20;99.90;;;14.03;89.62;100981.75;5073962;28;20034;-65
2021/06/08 04:31:22;;;;;;;;;;;14.20;99.90;;;14.03;88.91;100978.22;5074125;28;19928;-63
2021/06/08 04:33:50;;;;;;;;;;;14.20;99.90;;;13.94;88.46;100978.16;5074112;28;19935;-63
2021/06/08 04:36:18;;;;;;;;;;;14.10;99.90;;;13.91;88.22;100981.47;5073189;28;19931;-64
2021/06/08 04:38:47;;;;;;;;;;;14.10;99.90;;;13.87;87.96;100985.91;5073768;28;19936;-64
2021/06/08 04:41:15;;;;;;;;;;;14.00;99.90;;;13.81;88.81;100987.16;5074257;28;19932;-64
2021/06/08 04:43:43;;;;;;;;;;;14.00;99.90;;;13.74;89.57;100986.75;5074119;28;19932;-64
2021/06/08 04:46:12;;;;;;;;;;;14.00;99.90;;;13.71;91.51;100989.31;5072931;28;19972;-64
2021/06/08 04:48:40;;;;;;;;;;;14.00;99.90;;;13.50;91.25;100994.38;5073345;28;19932;-64
2021/06/08 04:51:08;;;;;;;;;;;13.80;99.90;;;13.32;91.52;100989.88;5073799;28;19925;-64
2021/06/08 04:53:36;;;;;;;;;;;13.70;99.90;;;13.26;92.83;100982.94;5073781;28;19924;-64
2021/06/08 04:56:06;;;;;;;;;;;13.60;99.90;;;13.19;92.71;100987.97;5072711;28;19981;-63
2021/06/08 04:58:33;;;;;;;;;;;13.60;99.90;;;13.09;92.99;100991.72;5073450;28;19979;-64
2021/06/08 05:01:04;;;;;;;;;;;13.50;99.90;;;13.00;93.57;100986.16;5073798;28;20000;-63
2021/06/08 05:03:35;;;;;;;;;;;13.40;99.90;;;12.92;93.44;100978.69;5073573;28;20388;-63
2021/06/08 05:06:03;;;;;;;;;;;13.40;99.90;;;12.90;93.11;100978.19;5071725;28;19924;-63
2021/06/08 05:08:35;;;;;;;;;;;13.40;99.90;;;13.00;92.39;100975.28;5073013;28;19978;-63
2021/06/08 05:11:11;;;;;;;;;;;13.40;99.90;;;13.11;91.42;100975.91;5073488;28;20435;-63
2021/06/08 05:13:39;;;;;;;;;;;13.50;99.90;;;13.19;91.61;100974.41;5073489;28;19930;-65
2021/06/08 05:16:07;;;;;;;;;;;13.60;99.90;;;13.23;91.11;100976.19;5072388;28;19975;-63
2021/06/08 05:18:36;;;;;;;;;;;13.70;99.90;;;13.30;90.82;100983.94;5072778;28;19931;-65
2021/06/08 05:21:05;;;;;;;;;;;13.70;99.90;;;13.37;91.05;100985.16;5073439;28;20019;-65
2021/06/08 05:23:33;;;;;;;;;;;13.80;99.90;;;13.46;90.48;100979.81;5073306;28;19933;-66
2021/06/08 05:26:01;;;;;;;;;;;13.90;99.90;;;13.54;90.40;100979.06;5072168;28;19924;-65
2021/06/08 05:28:30;;;;;;;;;;;13.90;99.90;;;13.61;89.46;100980.28;5072780;28;19925;-65
2021/06/08 05:30:57;;;;;;;;;;;14.00;99.90;;;13.69;88.65;100982.25;5073076;28;19929;-65
2021/06/08 05:33:25;;;;;;;;;;;14.10;99.90;;;13.87;88.14;100994.06;5073045;28;20309;-65
2021/06/08 05:35:53;;;;;;;;;;;14.20;99.90;;;14.78;84.20;100991.81;5072172;28;19925;-65
2021/06/08 05:38:30;;;;;;;;;;;14.80;99.90;;;15.35;78.77;100978.25;5072708;28;20373;-65
2021/06/08 05:40:57;;;;;;;;;;;15.50;99.90;;;15.25;77.90;100980.16;5073019;28;19932;-65
2021/06/08 05:43:24;;;;;;;;;;;15.70;99.90;;;15.27;78.04;100979.81;5073364;28;20344;-65
2021/06/08 05:45:53;;;;;;;;;;;15.70;99.90;;;15.46;77.05;100974.09;5072117;28;19936;-65
2021/06/08 05:48:22;;;;;;;;;;;15.80;99.90;;;15.64;76.27;100968.38;5072287;28;19925;-65
2021/06/08 05:50:49;;;;;;;;;;;16.00;99.90;;;15.74;75.13;100975.44;5072686;28;19935;-63
2021/06/08 05:53:17;;;;;;;;;;;16.10;99.90;;;15.79;74.89;100976.06;5073047;28;20278;-63
2021/06/08 05:55:46;;;;;;;;;;;16.20;99.90;;;15.96;74.46;100985.38;5072103;28;19928;-64
2021/06/08 05:58:14;;;;;;;;;;;16.30;99.90;;;16.60;72.04;100991.72;5071997;28;19932;-64
2021/06/08 06:00:41;;;;;;;;;;;16.60;99.90;;;17.78;67.65;100982.47;5072814;28;19924;-64
2021/06/08 06:03:10;;;;;;;;;;;17.60;99.90;;;18.70;63.65;100970.13;5072637;28;19947;-64
2021/06/08 06:05:38;;;;;;;;;;;18.70;99.90;;;19.42;60.48;100966.63;5072232;28;19994;-64
2021/06/08 06:08:06;;;;;;;;;;;19.60;99.90;;;20.18;58.10;100971.19;5071748;28;19928;-65
2021/06/08 06:10:33;;;;;;;;;;;20.40;99.90;;;20.81;55.83;100976.78;5073395;28;19932;-64
2021/06/08 06:13:01;;;;;;;;;;;21.80;99.90;;;21.78;53.78;100985.78;5072438;28;19924;-64
2021/06/08 06:15:29;;;;;;;;;;;22.30;99.90;;;22.70;49.83;100982.13;5071700;28;19971;-63
2021/06/08 06:17:57;;;;;;;;;;;23.10;99.90;;;22.89;49.38;100980.47;5071665;28;19924;-64
2021/06/08 06:20:26;;;;;;;;;;;23.80;99.90;;;23.06;48.32;100978.00;5072544;28;19983;-64
2021/06/08 06:22:53;;;;;;;;;;;24.00;99.90;;;23.12;48.23;100982.03;5072506;28;19924;-63
2021/06/08 06:25:20;;;;;;;;;;;24.10;99.90;;;23.77;46.72;100974.28;5072146;28;19924;-65
2021/06/08 06:27:48;;;;;;;;;;;;;;;24.98;43.50;100980.00;5071919;28;19936;-66
2021/06/08 06:30:17;;;;;;;;;;;25.50;99.90;;;26.24;40.12;100975.56;5072489;28;19924;-66
2021/06/08 06:32:45;;;;;;;;;;;27.10;99.90;;;27.05;38.63;100964.56;5072470;28;19924;-65
2021/06/08 06:35:13;;;;;;;;;;;27.10;99.90;;;26.76;39.02;100973.25;5071892;28;19959;-66
2021/06/08 06:37:42;;;;;;;;;;;27.50;99.90;;;26.60;39.67;100981.97;5072103;28;19924;-64
2021/06/08 06:40:13;;;;;;;;;;;28.00;99.90;;;26.98;37.95;100974.88;5072108;28;19924;-65
2021/06/08 06:42:43;;;;;;;;;;;28.00;99.90;;;26.20;39.68;100977.56;5072786;28;19928;-66
2021/06/08 06:45:16;;;;;;;;;;;27.70;99.90;;;25.67;40.21;100980.06;5072212;28;19932;-65
2021/06/08 06:47:43;;;;;;;;;;;27.40;99.90;;;24.44;42.42;100977.06;5072383;28;19932;-65
2021/06/08 06:50:13;;;;;;;;;;;26.40;99.90;;;24.08;43.84;100975.88;5073222;28;19925;-65
2021/06/08 06:52:55;;;;;;;;;;;26.00;99.90;;;23.74;44.74;100968.75;5073475;28;20298;-65
2021/06/08 06:55:23;;;;;;;;;;;25.80;99.90;;;23.52;45.92;100973.19;5072001;28;19924;-65
2021/06/08 06:57:51;;;;;;;;;;;25.80;99.90;;;23.48;45.54;100974.28;5071679;28;19924;-65
2021/06/08 07:00:18;;;;;;;;;;;25.80;99.90;;;23.46;45.63;100973.88;5071930;28;19951;-65
2021/06/08 07:02:47;;;;;;;;;;;25.90;99.90;;;23.81;45.67;100980.66;5072329;28;19928;-65
2021/06/08 07:05:17;;;;;;;;;;;26.50;99.90;;;24.09;43.98;100971.13;5071498;28;19928;-66
2021/06/08 07:07:46;;;;;;;;;;;27.00;99.90;;;24.06;44.49;100974.66;5071298;28;19952;-65
2021/06/08 07:10:15;;;;;;;;;;;26.40;99.90;;;23.23;44.33;100963.66;5071820;28;19925;-65
2021/06/08 07:12:44;;;;;;;;;;;25.90;99.90;;;22.92;47.74;100974.97;5072747;28;19925;-65
2021/06/08 07:15:13;;;;;;;;;;;24.80;99.90;;;22.99;47.71;100974.31;5071453;28;20365;-66
2021/06/08 07:17:40;;;;;;;;;;;23.90;99.90;;;22.95;45.70;100963.22;5071096;28;19978;-65
2021/06/08 07:20:11;;;;;;;;;;;23.60;99.90;;;22.75;45.64;100972.75;5071818;28;19928;-65
2021/06/08 07:22:40;;;;;;;;;;;23.50;99.90;;;22.54;45.46;100973.13;5071955;28;19924;-65
2021/06/08 07:25:11;;;;;;;;;;;23.10;99.90;;;22.29;47.05;100972.66;5071627;28;19979;-65
2021/06/08 07:27:38;;;;;;;;;;;22.70;99.90;;;22.19;46.74;100972.47;5071737;28;20282;-65
2021/06/08 07:30:08;;;;;;;;;;;22.70;99.90;;;22.04;46.40;100984.38;5075459;28;19925;-65
2021/06/08 07:32:38;;;;;;;;;;;22.50;99.90;;;21.92;46.07;100977.03;5075302;28;19924;-65
2021/06/08 07:35:12;;;;;;;;;;;22.40;99.90;;;21.99;47.43;100985.44;5074962;28;19933;-65
2021/06/08 07:37:43;;;;;;;;;;;22.40;99.90;;;22.09;47.38;100976.63;5074803;28;20293;-65
2021/06/08 07:40:16;;;;;;;;;;;22.50;99.90;;;22.28;47.20;100986.81;5075176;28;19940;-65
2021/06/08 07:42:44;;;;;;;;;;;;;;;22.38;47.05;100977.16;5075231;28;19951;-65
2021/06/08 07:45:12;;;;;;;;;;;22.70;99.90;;;22.25;46.70;100982.81;5074639;28;19932;-65
2021/06/08 07:47:40;;;;;;;;;;;22.60;99.90;;;22.31;47.08;100986.09;5074639;28;19928;-65
2021/06/08 07:50:09;;;;;;;;;;;22.80;99.90;;;22.44;47.05;100983.94;5074955;28;20320;-65
2021/06/08 07:52:37;;;;;;;;;;;22.80;99.90;;;22.63;46.78;100986.66;5074989;28;20423;-65
2021/06/08 07:55:06;;;;;;;;;;;22.90;99.90;;;22.67;46.13;100980.09;5074441;28;19924;-65
2021/06/08 07:57:35;;;;;;;;;;;23.00;99.90;;;22.80;46.89;100983.44;5074630;28;20258;-64
2021/06/08 08:00:03;;;;;;;;;;;23.10;99.90;;;22.68;45.55;100981.69;5075312;28;19936;-65
2021/06/08 08:02:30;;;;;;;;;;;23.10;99.90;;;22.76;44.53;100980.66;5074965;28;19924;-65
2021/06/08 08:05:02;;;;;;;;;;;23.10;99.90;;;22.78;44.77;100972.81;5074449;28;19932;-66
2021/06/08 08:07:29;;;;;;;;;;;23.10;99.90;;;23.00;45.01;100982.22;5074272;28;19925;-65
2021/06/08 08:09:57;;;;;;;;;;;23.30;99.90;;;23.32;45.67;100977.97;5074712;28;19924;-65
2021/06/08 08:12:24;;;;;;;;;;;23.60;99.90;;;23.14;43.75;100976.13;5074556;28;19928;-66
2021/06/08 08:14:53;;;;;;;;;;;23.50;99.90;;;22.86;45.31;100971.75;5074075;28;19935;-64
2021/06/08 08:17:24;;;;;;;;;;;23.20;99.90;;;22.78;45.53;100967.28;5074041;28;20297;-63
2021/06/08 08:19:52;;;;;;;;;;;23.20;99.90;;;22.44;47.07;100972.94;5074663;28;20386;-63
2021/06/08 08:22:19;;;;;;;;;;;22.80;99.90;;;22.68;46.56;100973.41;5074386;28;20317;-63
2021/06/08 08:24:46;;;;;;;;;;;23.10;99.90;;;23.06;44.65;100968.91;5073880;28;19982;-63
2021/06/08 08:27:14;;;;;;;;;;;23.30;99.90;;;23.00;45.62;100973.94;5073907;28;20452;-63
2021/06/08 08:29:44;;;;;;;;;;;23.20;99.90;;;22.72;46.12;100973.47;5074515;28;20485;-64
2021/06/08 08:32:14;;;;;;;;;;;23.10;99.90;;;22.74;46.09;100976.66;5074393;28;19925;-65
2021/06/08 08:34:42;;;;;;;;;;;23.20;99.90;;;22.99;45.65;100983.38;5073992;28;19931;-65
2021/06/08 08:37:10;;;;;;;;;;;23.30;99.90;;;23.23;45.25;100976.66;5074116;28;19929;-63
2021/06/08 08:39:37;;;;;;;;;;;23.50;99.90;;;23.10;44.57;100969.78;5074163;28;19931;-63
2021/06/08 08:42:05;;;;;;;;;;;23.30;99.90;;;22.57;45.04;100979.88;5074111;28;19925;-66
2021/06/08 08:44:33;;;;;;;;;;;23.10;99.90;;;22.41;47.59;100971.69;5073833;28;20019;-65
2021/06/08 08:47:00;;;;;;;;;;;22.80;99.90;;;22.96;47.08;100969.53;5073455;28;20298;-63
2021/06/08 08:49:29;;;;;;;;;;;23.20;99.90;;;23.23;45.31;100958.16;5073954;28;19926;-65
2021/06/08 08:51:57;;;;;;;;;;;23.50;99.90;;;22.94;44.68;100960.84;5073692;28;19928;-63
2021/06/08 08:54:24;;;;;;;;;;;23.40;99.90;;;22.83;45.91;100955.94;5074032;28;19966;-65
2021/06/08 08:56:52;;;;;;;;;;;23.30;99.90;;;23.17;47.24;100958.81;5074079;28;19928;-65
2021/06/08 08:59:20;;;;;;;;;;;23.50;99.90;;;23.25;45.90;100960.53;5073656;28;19924;-65
2021/06/08 09:01:50;;;;;;;;;;;23.80;99.90;;;23.58;45.39;100962.63;5073781;28;19935;-65
2021/06/08 09:04:19;;;;;;;;;;;23.90;99.90;;;24.07;43.43;100952.19;5073695;28;20305;-65
2021/06/08 09:06:48;;;;;;;;;;;24.50;99.90;;;24.54;43.27;100950.72;5072847;28;19932;-63
2021/06/08 09:09:15;;;;;;;;;;;24.80;99.90;;;24.67;42.46;100952.03;5074691;28;19925;-63
2021/06/08 09:11:43;;;;;;;;;;;25.00;99.90;;;24.71;41.30;100950.88;5074437;28;19928;-66
2021/06/08 09:14:13;;;;;;;;;;;25.10;99.90;;;24.32;41.64;100960.75;5073664;28;19978;-66
2021/06/08 09:16:40;;;;;;;;;;;24.80;99.90;;;24.42;42.09;100960.06;5073051;28;19931;-65
2021/06/08 09:19:09;;;;;;;;;;;24.80;99.90;;;24.45;43.25;100964.84;5073956;28;19987;-65
2021/06/08 09:21:39;;;;;;;;;;;24.90;99.90;;;24.71;42.67;100966.69;5073776;28;19932;-64
2021/06/08 09:24:19;;;;;;;;;;;25.00;99.90;;;25.08;41.15;100963.84;5074312;28;20032;-63
2021/06/08 09:26:54;;;;;;;;;;;25.40;99.90;;;25.37;40.74;100962.84;5072422;28;19936;-64
2021/06/08 09:29:32;;;;;;;;;;;25.70;99.90;;;25.01;41.20;100964.59;5073684;28;19924;-63
2021/06/08 09:32:20;;;;;;;;;;;25.50;99.90;;;25.16;41.20;100948.88;5073066;28;19932;-66
2021/06/08 09:34:52;;;;;;;;;;;25.60;99.90;;;25.23;44.70;100951.69;5072648;28;19925;-66
2021/06/08 09:37:36;;;;;;;;;;;25.80;99.90;;;25.32;44.60;100955.69;5073614;28;19924;-64
2021/06/08 09:40:17;;;;;;;;;;;25.80;99.90;;;25.35;45.15;100949.38;5073117;28;19928;-66
2021/06/08 09:42:45;;;;;;;;;;;25.80;99.90;;;25.21;45.25;100948.50;5074570;28;19970;-65
2021/06/08 09:45:14;;;;;;;;;;;25.80;99.90;;;24.97;45.88;100958.22;5073386;28;20293;-65
2021/06/08 09:47:42;;;;;;;;;;;25.50;99.90;;;25.04;46.02;100957.50;5072134;28;19931;-65
2021/06/08 09:50:30;;;;;;;;;;;25.60;99.90;;;24.74;46.21;100950.13;5072586;28;19924;-65
2021/06/08 09:53:20;;;;;;;;;;;25.40;99.90;;;24.69;46.71;100952.44;5072650;28;19925;-65
2021/06/08 09:55:53;;;;;;;;;;;25.30;99.90;;;24.73;47.54;100954.06;5071975;28;19928;-66
2021/06/08 09:58:21;;;;;;;;;;;25.30;99.90;;;24.82;47.31;100954.56;5072142;28;19986;-65
2021/06/08 10:01:14;;;;;;;;;;;25.30;99.90;;;24.71;47.39;100952.84;5073199;28;19935;-65
2021/06/08 10:03:43;;;;;;;;;;;25.30;99.90;;;24.77;47.07;100960.44;5073677;28;19925;-65
2021/06/08 10:06:12;;;;;;;;;;;25.30;99.90;;;24.78;46.34;100962.00;5072546;28;20313;-63
2021/06/08 10:08:50;;;;;;;;;;;25.30;99.90;;;24.73;45.76;100959.59;5072055;28;20293;-66
2021/06/08 10:11:21;;;;;;;;;;;25.30;99.90;;;24.61;46.27;100957.09;5073107;28;19963;-65
2021/06/08 10:13:49;;;;;;;;;;;25.20;99.90;;;24.47;46.50;100954.19;5072922;28;19947;-65
2021/06/08 10:16:25;;;;;;;;;;;25.10;99.90;;;24.31;45.97;100964.72;5071671;28;19929;-65
2021/06/08 10:18:52;;;;;;;;;;;24.90;99.90;;;24.13;46.03;100964.53;5072453;28;19983;-65
2021/06/08 10:21:34;;;;;;;;;;;24.70;99.90;;;24.10;45.92;100965.25;5073317;28;19932;-65
2021/06/08 10:24:04;;;;;;;;;;;24.70;99.90;;;24.16;46.40;100960.22;5073545;28;19924;-63
2021/06/08 10:26:35;;;;;;;;;;;24.70;99.90;;;24.31;46.44;100962.75;5072880;28;19932;-65
2021/06/08 10:29:05;;;;;;;;;;;24.90;99.90;;;24.38;46.47;100959.25;5072860;28;19928;-64
2021/06/08 10:31:33;;;;;;;;;;;24.90;99.90;;;24.39;45.97;100958.06;5072387;28;19931;-63
2021/06/08 10:34:04;;;;;;;;;;;25.00;99.90;;;24.37;46.34;100963.19;5071975;28;19929;-63
2021/06/08 10:36:31;;;;;;;;;;;25.00;99.90;;;24.38;46.46;100953.72;5071544;28;20357;-65
2021/06/08 10:38:59;;;;;;;;;;;25.00;99.90;;;24.46;46.63;100953.44;5072005;28;19982;-65
2021/06/08 10:41:27;;;;;;;;;;;25.00;99.90;;;24.40;47.45;100960.47;5072422;28;19929;-65
2021/06/08 10:43:56;;;;;;;;;;;25.00;99.90;;;24.49;47.11;100954.63;5072169;28;19943;-65
2021/06/08 10:46:26;;;;;;;;;;;25.00;99.90;;;24.46;46.30;100960.91;5071625;28;19932;-65
2021/06/08 10:48:54;;;;;;;;;;;25.00;99.90;;;24.35;46.58;100965.53;5072739;28;19940;-65
2021/06/08 10:51:22;;;;;;;;;;;24.90;99.90;;;24.19;45.64;100953.94;5072647;28;19924;-64
2021/06/08 10:53:51;;;;;;;;;;;24.70;99.90;;;24.19;48.22;100954.72;5071894;28;19925;-66
2021/06/08 10:56:24;;;;;;;;;;;24.60;99.90;;;24.26;48.03;100954.78;5071735;28;19925;-65
2021/06/08 10:58:53;;;;;;;;;;;24.70;99.90;;;24.34;47.64;100958.44;5071580;28;19929;-63
2021/06/08 11:01:47;;;;;;;;;;;24.80;99.90;;;24.34;47.29;100948.16;5073790;28;19936;-65
2021/06/08 11:04:16;;;;;;;;;;;24.90;99.90;;;24.36;47.23;100945.00;5067100;28;19925;-64
2021/06/08 11:06:50;;;;;;;;;;;24.90;99.90;;;24.27;47.72;100959.16;5075877;28;19935;-65
2021/06/08 11:09:19;;;;;;;;;;;24.80;99.90;;;24.38;47.61;100960.03;5075695;28;20346;-63
2021/06/08 11:11:49;;;;;;;;;;;24.90;99.90;;;24.47;46.85;100959.72;5076388;28;19936;-63
2021/06/08 11:14:47;;;;;;;;;;;25.00;99.90;;;24.35;46.38;100971.06;5075714;28;19928;-65
2021/06/08 11:17:28;;;;;;;;;;;24.90;99.90;;;24.29;47.66;100969.81;5075503;28;19931;-65
2021/06/08 11:19:57;;;;;;;;;;;24.80;99.90;;;24.22;47.60;100972.50;5075575;28;19924;-65